TimeCDT,TemperatureF,Dew PointF,Humidity,Sea Level PressureIn,VisibilityMPH,Wind Direction,Wind SpeedMPH,Gust SpeedMPH,PrecipitationIn,Events,Conditions,WindDirDegrees,DateUTC
12:53 AM,75.9,72.0,87,29.93,10.0,Calm,Calm,-,N/A,,Mostly Cloudy,0,2013-07-11 05:53:00
1:53 AM,75.0,73.0,94,29.92,10.0,Calm,Calm,-,N/A,,Clear,0,2013-07-11 06:53:00
2:53 AM,75.0,73.0,94,29.92,10.0,Calm,Calm,-,N/A,,Clear,0,2013-07-11 07:53:00
3:53 AM,73.0,71.1,93,29.93,10.0,Calm,Calm,-,N/A,,Clear,0,2013-07-11 08:53:00
4:53 AM,73.0,71.1,93,29.93,10.0,Calm,Calm,-,N/A,,Clear,0,2013-07-11 09:53:00
5:53 AM,72.0,71.1,97,29.94,7.0,North,-9999.0,-,N/A,,Scattered Clouds,0,2013-07-11 10:53:00
6:53 AM,75.0,72.0,90,29.96,8.0,North,3.5,-,N/A,,Mostly Cloudy,360,2013-07-11 11:53:00
7:53 AM,77.0,72.0,84,29.96,10.0,NE,6.9,-,N/A,,Clear,40,2013-07-11 12:53:00
8:53 AM,80.1,73.0,79,29.96,10.0,NNE,6.9,-,N/A,,Clear,30,2013-07-11 13:53:00
9:53 AM,81.0,71.1,72,29.96,10.0,North,10.4,-,N/A,,Clear,10,2013-07-11 14:53:00
10:53 AM,82.0,72.0,71,29.98,10.0,North,9.2,-,N/A,,Partly Cloudy,360,2013-07-11 15:53:00
11:29 AM,80.6,71.6,74,30.00,10.0,NE,9.2,-,N/A,,Mostly Cloudy,50,2013-07-11 16:29:00
11:42 AM,82.4,71.6,70,30.00,10.0,NNE,10.4,-,N/A,,Scattered Clouds,30,2013-07-11 16:42:00
11:53 AM,82.9,71.1,67,29.99,10.0,NE,10.4,-,N/A,,Partly Cloudy,50,2013-07-11 16:53:00
12:53 PM,84.0,68.0,58,29.99,10.0,ENE,10.4,-,N/A,,Partly Cloudy,70,2013-07-11 17:53:00
1:53 PM,84.9,64.9,51,29.98,10.0,NE,12.7,18.4,N/A,,Clear,40,2013-07-11 18:53:00
2:53 PM,84.9,64.0,49,29.98,10.0,NNE,11.5,18.4,N/A,,Clear,20,2013-07-11 19:53:00
3:53 PM,84.9,64.0,49,29.98,10.0,NE,12.7,-,N/A,,Mostly Cloudy,40,2013-07-11 20:53:00
4:53 PM,82.0,63.0,52,29.98,10.0,NNE,11.5,-,N/A,,Partly Cloudy,20,2013-07-11 21:53:00
5:53 PM,82.0,60.1,47,29.97,10.0,NNE,15.0,-,N/A,,Clear,20,2013-07-11 22:53:00
6:53 PM,80.1,59.0,48,29.96,10.0,NNE,12.7,-,N/A,,Clear,20,2013-07-11 23:53:00
7:53 PM,75.9,60.1,58,29.96,10.0,North,9.2,-,N/A,,Clear,10,2013-07-12 00:53:00
8:53 PM,72.0,60.1,66,29.97,10.0,NNE,6.9,-,N/A,,Clear,20,2013-07-12 01:53:00
9:53 PM,70.0,60.1,71,29.99,10.0,NNE,6.9,-,N/A,,Clear,20,2013-07-12 02:53:00
10:53 PM,69.1,60.1,73,30.00,10.0,NNE,5.8,-,N/A,,Clear,20,2013-07-12 03:53:00
11:53 PM,66.9,60.1,79,30.01,10.0,North,3.5,-,N/A,,Clear,350,2013-07-12 04:53:00